createdAt,value
2023-02-26T00:01:15.435Z,4.70
2023-02-26T00:03:42.859Z,4.70
2023-02-26T00:06:10.343Z,4.80
2023-02-26T00:08:37.775Z,4.80
2023-02-26T00:11:10.716Z,4.90
2023-02-26T00:13:40.097Z,4.80
2023-02-26T00:16:34.332Z,4.60
2023-02-26T00:19:04.611Z,4.60
2023-02-26T00:21:33.399Z,4.70
2023-02-26T00:24:02.257Z,4.60
2023-02-26T00:26:32.030Z,4.60
2023-02-26T00:28:59.861Z,4.70
2023-02-26T00:31:27.959Z,4.60
2023-02-26T00:33:57.983Z,4.50
2023-02-26T00:36:48.276Z,4.50
2023-02-26T00:39:30.641Z,4.50
2023-02-26T00:41:58.083Z,4.40
2023-02-26T00:44:25.768Z,4.40
2023-02-26T00:47:17.989Z,4.40
2023-02-26T00:49:54.036Z,4.40
2023-02-26T00:52:32.373Z,4.50
2023-02-26T00:54:59.604Z,4.50
2023-02-26T00:57:26.771Z,4.40
2023-02-26T00:59:53.903Z,4.40
2023-02-26T01:02:21.116Z,4.30
2023-02-26T01:04:48.652Z,4.40
2023-02-26T01:07:17.974Z,4.30
2023-02-26T01:09:45.492Z,4.30
2023-02-26T01:12:13.464Z,4.30
2023-02-26T01:14:41.572Z,4.40
2023-02-26T01:17:28.009Z,4.20
2023-02-26T01:20:16.863Z,4.30
2023-02-26T01:23:07.327Z,4.30
2023-02-26T01:25:47.452Z,4.30
2023-02-26T01:28:15.388Z,4.40
2023-02-26T01:30:43.209Z,4.40
2023-02-26T01:33:25.109Z,4.40
2023-02-26T01:36:14.116Z,4.40
2023-02-26T01:39:06.472Z,4.30
2023-02-26T01:41:39.697Z,4.30
2023-02-26T01:44:34.639Z,4.40
2023-02-26T01:47:17.206Z,4.40
2023-02-26T01:49:44.783Z,4.30
2023-02-26T01:52:49.328Z,4.40
2023-02-26T01:55:22.425Z,4.40
2023-02-26T01:57:52.457Z,4.40
2023-02-26T02:00:20.885Z,4.50
2023-02-26T02:02:49.981Z,4.50
2023-02-26T02:05:27.547Z,4.50
2023-02-26T02:07:56.885Z,4.50
2023-02-26T02:10:25.576Z,4.50
2023-02-26T02:13:14.126Z,4.50
2023-02-26T02:16:12.079Z,4.30
2023-02-26T02:18:49.937Z,4.20
2023-02-26T02:21:47.909Z,4.20
2023-02-26T02:24:38.326Z,4.10
2023-02-26T02:27:19.950Z,4.00
2023-02-26T02:30:02.934Z,4.00
2023-02-26T02:33:00.791Z,4.00
2023-02-26T02:35:37.895Z,4.00
2023-02-26T02:38:11.640Z,3.90
2023-02-26T02:40:48.153Z,3.90
2023-02-26T02:43:25.995Z,4.00
2023-02-26T02:46:09.099Z,3.90
2023-02-26T02:48:45.308Z,3.90
2023-02-26T02:51:23.903Z,3.90
2023-02-26T02:54:26.754Z,3.90
2023-02-26T02:57:27.732Z,3.90
2023-02-26T02:59:59.526Z,3.90
2023-02-26T03:02:33.769Z,3.90
2023-02-26T03:05:00.816Z,3.80
2023-02-26T03:07:33.480Z,3.80
2023-02-26T03:10:00.993Z,3.80
2023-02-26T03:12:32.092Z,3.90
2023-02-26T03:15:00.210Z,3.90
2023-02-26T03:17:32.895Z,4.00
2023-02-26T03:20:20.206Z,4.00
2023-02-26T03:23:06.219Z,4.00
2023-02-26T03:25:43.786Z,3.90
2023-02-26T03:28:31.942Z,4.00
2023-02-26T03:31:04.029Z,4.00
2023-02-26T03:33:54.845Z,4.00
2023-02-26T03:36:28.563Z,4.10
2023-02-26T03:39:23.461Z,4.10
2023-02-26T03:42:33.208Z,4.10
2023-02-26T03:45:11.549Z,3.90
2023-02-26T03:47:42.840Z,3.90
2023-02-26T03:50:40.452Z,3.90
2023-02-26T03:54:01.438Z,3.90
2023-02-26T03:56:37.848Z,3.90
2023-02-26T03:59:05.211Z,3.90
2023-02-26T04:02:18.974Z,3.90
2023-02-26T04:04:59.407Z,3.80
2023-02-26T04:07:26.871Z,3.80
2023-02-26T04:09:53.954Z,3.80
2023-02-26T04:12:27.895Z,3.80
2023-02-26T04:14:57.269Z,3.90
2023-02-26T04:17:25.637Z,4.00
2023-02-26T04:19:52.701Z,4.00
2023-02-26T04:22:19.929Z,4.00
2023-02-26T04:24:47.101Z,3.90
2023-02-26T04:27:15.315Z,3.90
2023-02-26T04:29:42.443Z,3.90
2023-02-26T04:32:09.655Z,3.80
2023-02-26T04:34:36.805Z,3.80
2023-02-26T04:37:04.815Z,3.80
2023-02-26T04:39:31.893Z,3.80
2023-02-26T04:41:59.031Z,3.80
2023-02-26T04:44:26.207Z,3.70
2023-02-26T04:46:53.388Z,3.70
2023-02-26T04:49:20.828Z,3.70
2023-02-26T04:51:47.989Z,3.70
2023-02-26T04:54:16.552Z,3.60
2023-02-26T04:56:43.616Z,3.60
2023-02-26T04:59:10.868Z,3.60
2023-02-26T05:01:38.099Z,3.60
2023-02-26T05:04:08.202Z,3.60
2023-02-26T05:06:35.433Z,3.60
2023-02-26T05:09:02.531Z,3.60
2023-02-26T05:11:30.973Z,3.60
2023-02-26T05:13:58.077Z,3.60
2023-02-26T05:16:25.608Z,3.60
2023-02-26T05:18:53.292Z,3.70
2023-02-26T05:21:22.505Z,3.60
2023-02-26T05:23:50.532Z,3.60
2023-02-26T05:26:17.640Z,3.60
2023-02-26T05:28:45.880Z,3.60
2023-02-26T05:31:13.936Z,3.50
2023-02-26T05:33:41.627Z,3.50
2023-02-26T05:36:09.293Z,3.40
2023-02-26T05:38:36.367Z,3.50
2023-02-26T05:41:03.554Z,3.50
2023-02-26T05:43:31.125Z,3.50
2023-02-26T05:45:58.423Z,3.40
2023-02-26T05:48:25.558Z,3.40
2023-02-26T05:50:52.870Z,3.30
2023-02-26T05:53:20.094Z,3.30
2023-02-26T05:55:47.165Z,3.40
2023-02-26T05:58:14.662Z,3.30
2023-02-26T06:00:41.769Z,3.30
2023-02-26T06:03:08.976Z,3.20
2023-02-26T06:05:36.369Z,3.30
2023-02-26T06:08:05.568Z,3.30
2023-02-26T06:10:33.156Z,3.30
2023-02-26T06:13:00.354Z,3.30
2023-02-26T06:15:27.489Z,3.30
2023-02-26T06:17:54.535Z,3.30
2023-02-26T06:20:21.643Z,3.30
2023-02-26T06:22:48.741Z,3.30
2023-02-26T06:25:16.502Z,3.30
2023-02-26T06:27:43.662Z,3.30
2023-02-26T06:30:11.689Z,3.30
2023-02-26T06:32:38.752Z,3.30
2023-02-26T06:35:06.946Z,3.50
2023-02-26T06:37:34.002Z,3.50
2023-02-26T06:40:01.121Z,3.50
2023-02-26T06:42:29.298Z,3.60
2023-02-26T06:44:57.793Z,3.60
2023-02-26T06:47:24.997Z,3.50
2023-02-26T06:49:52.383Z,3.40
2023-02-26T06:52:19.847Z,3.60
2023-02-26T06:54:46.898Z,3.60
2023-02-26T06:57:13.956Z,3.60
2023-02-26T06:59:41.091Z,3.70
2023-02-26T07:02:11.389Z,3.70
2023-02-26T07:04:38.431Z,3.70
2023-02-26T07:07:05.505Z,3.70
2023-02-26T07:09:32.592Z,3.70
2023-02-26T07:11:59.639Z,3.80
2023-02-26T07:14:26.941Z,3.70
2023-02-26T07:16:54.097Z,3.60
2023-02-26T07:19:21.569Z,3.80
2023-02-26T07:21:49.087Z,3.80
2023-02-26T07:24:16.350Z,3.80
2023-02-26T07:26:43.451Z,3.90
2023-02-26T07:29:10.533Z,3.90
2023-02-26T07:31:37.667Z,4.00
2023-02-26T07:34:04.797Z,4.10
2023-02-26T07:36:31.906Z,4.00
2023-02-26T07:38:58.996Z,4.00
2023-02-26T07:41:26.080Z,4.10
2023-02-26T07:43:53.119Z,4.00
2023-02-26T07:46:20.238Z,4.00
2023-02-26T07:48:47.487Z,4.00
2023-02-26T07:51:14.646Z,4.10
2023-02-26T07:53:42.005Z,4.30
2023-02-26T07:56:09.921Z,4.40
2023-02-26T07:58:37.184Z,4.40
2023-02-26T08:01:04.476Z,4.40
2023-02-26T08:03:32.337Z,4.40
2023-02-26T08:06:03.087Z,4.40
2023-02-26T08:08:30.177Z,4.40
2023-02-26T08:11:00.004Z,4.50
2023-02-26T08:13:27.369Z,4.50
2023-02-26T08:15:54.512Z,4.50
2023-02-26T08:18:21.724Z,4.50
2023-02-26T08:20:52.312Z,4.50
2023-02-26T08:23:19.755Z,4.60
2023-02-26T08:25:47.341Z,4.60
2023-02-26T08:28:14.889Z,4.70
2023-02-26T08:30:41.950Z,4.70
2023-02-26T08:33:09.011Z,4.80
2023-02-26T08:35:36.029Z,4.70
2023-02-26T08:38:03.165Z,4.70
2023-02-26T08:40:30.328Z,4.70
2023-02-26T08:42:59.767Z,4.70
2023-02-26T08:45:27.248Z,4.80
2023-02-26T08:47:57.254Z,4.80
2023-02-26T08:50:25.964Z,4.80
2023-02-26T08:52:55.530Z,4.80
2023-02-26T08:55:23.097Z,4.90
2023-02-26T08:57:50.138Z,4.90
2023-02-26T09:00:18.797Z,5.00
2023-02-26T09:02:46.447Z,5.00
2023-02-26T09:05:15.292Z,5.00
2023-02-26T09:07:43.902Z,5.10
2023-02-26T09:10:12.091Z,5.10
2023-02-26T09:12:39.178Z,5.10
2023-02-26T09:15:08.079Z,5.10
2023-02-26T09:17:35.563Z,5.10
2023-02-26T09:20:03.508Z,5.00
2023-02-26T09:22:31.117Z,5.10
2023-02-26T09:24:58.214Z,5.20
2023-02-26T09:27:25.355Z,5.30
2023-02-26T09:29:52.585Z,5.30
2023-02-26T09:32:20.610Z,5.40
2023-02-26T09:34:47.915Z,5.30
2023-02-26T09:37:15.040Z,5.30
2023-02-26T09:39:42.097Z,5.20
2023-02-26T09:42:27.812Z,5.40
2023-02-26T09:45:00.310Z,5.40
2023-02-26T09:47:46.815Z,5.40
2023-02-26T09:50:24.348Z,5.50
2023-02-26T09:52:55.804Z,5.60
2023-02-26T09:55:34.865Z,5.60
2023-02-26T09:58:05.356Z,5.60
2023-02-26T10:00:45.754Z,5.70
2023-02-26T10:03:13.109Z,6.00
2023-02-26T10:05:43.377Z,6.10
2023-02-26T10:08:17.631Z,6.20
2023-02-26T10:10:51.497Z,6.20
2023-02-26T10:13:56.001Z,6.40
2023-02-26T10:16:29.971Z,6.60
2023-02-26T10:19:07.404Z,6.70
2023-02-26T10:21:51.769Z,6.70
2023-02-26T10:24:21.557Z,6.80
2023-02-26T10:27:01.581Z,6.70
2023-02-26T10:29:44.002Z,6.50
2023-02-26T10:32:52.650Z,6.70
2023-02-26T10:35:22.568Z,6.80
2023-02-26T10:38:02.882Z,6.80
2023-02-26T10:40:42.564Z,6.80
2023-02-26T10:43:35.552Z,6.70
2023-02-26T10:46:32.662Z,6.80
2023-02-26T10:49:05.664Z,6.70
2023-02-26T10:51:37.811Z,6.70
2023-02-26T10:54:31.527Z,6.70
2023-02-26T10:56:58.765Z,6.70
2023-02-26T10:59:27.132Z,6.80
2023-02-26T11:01:55.161Z,6.70
2023-02-26T11:04:26.347Z,6.70
2023-02-26T11:07:05.116Z,6.70
2023-02-26T11:09:34.346Z,6.70
2023-02-26T11:12:18.090Z,6.60
2023-02-26T11:14:47.762Z,6.60
2023-02-26T11:17:28.231Z,6.60
2023-02-26T11:20:06.036Z,6.50
2023-02-26T11:22:36.783Z,6.50
2023-02-26T11:25:05.638Z,6.50
2023-02-26T11:27:38.235Z,6.40
2023-02-26T11:30:15.535Z,6.50
2023-02-26T11:32:45.619Z,6.50
2023-02-26T11:35:15.463Z,6.50
2023-02-26T11:37:48.738Z,6.50
2023-02-26T11:40:24.526Z,6.50
2023-02-26T11:42:55.910Z,6.30
2023-02-26T11:45:26.597Z,6.40
2023-02-26T11:48:04.513Z,6.40
2023-02-26T11:50:46.540Z,6.40
2023-02-26T11:53:21.968Z,6.50
2023-02-26T11:55:53.851Z,6.50
2023-02-26T11:58:24.741Z,6.50
2023-02-26T12:01:00.151Z,6.50
2023-02-26T12:03:31.884Z,6.70
2023-02-26T12:06:01.430Z,6.70
2023-02-26T12:08:38.664Z,6.80
2023-02-26T12:11:45.133Z,6.80
2023-02-26T12:14:19.707Z,6.80
2023-02-26T12:16:50.110Z,6.80
2023-02-26T12:19:46.871Z,6.80
2023-02-26T12:22:32.928Z,6.70
2023-02-26T12:25:09.502Z,6.60
2023-02-26T12:27:43.343Z,6.50
2023-02-26T12:30:36.633Z,6.50
2023-02-26T12:33:26.387Z,6.60
2023-02-26T12:36:17.107Z,6.50
2023-02-26T12:38:59.344Z,6.60
2023-02-26T12:42:11.145Z,6.70
2023-02-26T12:45:06.663Z,6.70
2023-02-26T12:47:34.166Z,6.60
2023-02-26T12:50:21.031Z,6.50
2023-02-26T12:53:14.617Z,6.50
2023-02-26T12:56:14.264Z,6.40
2023-02-26T12:58:47.638Z,6.30
2023-02-26T13:01:28.466Z,6.20
2023-02-26T13:04:10.470Z,6.20
2023-02-26T13:07:16.659Z,6.20
2023-02-26T13:10:06.163Z,6.10
2023-02-26T13:12:39.244Z,6.20
2023-02-26T13:15:15.820Z,6.20
2023-02-26T13:18:08.676Z,6.20
2023-02-26T13:20:39.381Z,6.20
2023-02-26T13:24:06.037Z,6.20
2023-02-26T13:26:36.132Z,6.30
2023-02-26T13:29:17.036Z,6.30
2023-02-26T13:32:07.474Z,6.30
2023-02-26T13:34:39.118Z,6.30
2023-02-26T13:37:09.660Z,6.40
2023-02-26T13:39:45.383Z,6.30
2023-02-26T13:42:37.413Z,6.40
2023-02-26T13:45:32.712Z,6.40
2023-02-26T13:48:15.756Z,6.30
2023-02-26T13:50:57.490Z,6.30
2023-02-26T13:53:31.327Z,6.30
2023-02-26T13:56:11.662Z,6.20
2023-02-26T13:58:45.376Z,6.10
2023-02-26T14:01:27.841Z,6.10
2023-02-26T14:04:20.356Z,6.10
2023-02-26T14:06:51.733Z,6.10
2023-02-26T14:09:22.200Z,6.00
2023-02-26T14:11:55.992Z,6.00
2023-02-26T14:14:23.764Z,6.00
2023-02-26T14:17:04.561Z,6.00
2023-02-26T14:19:44.734Z,6.00
2023-02-26T14:22:35.580Z,6.00
2023-02-26T14:25:23.356Z,5.90
2023-02-26T14:27:51.427Z,5.90
2023-02-26T14:30:31.487Z,5.90
2023-02-26T14:33:05.568Z,5.90
2023-02-26T14:35:46.733Z,5.90
2023-02-26T14:38:25.413Z,5.90
2023-02-26T14:41:05.946Z,5.90
2023-02-26T14:43:38.359Z,5.90
2023-02-26T14:46:07.694Z,5.90
2023-02-26T14:48:36.625Z,5.90
2023-02-26T14:51:07.200Z,5.90
2023-02-26T14:53:40.695Z,5.90
2023-02-26T14:56:23.447Z,5.90
2023-02-26T14:59:19.423Z,5.90
2023-02-26T15:02:06.605Z,5.90
2023-02-26T15:05:06.198Z,5.90
2023-02-26T15:07:54.931Z,5.90
2023-02-26T15:11:01.563Z,5.90
2023-02-26T15:13:47.061Z,5.90
2023-02-26T15:16:42.828Z,5.80
2023-02-26T15:19:31.885Z,5.80
2023-02-26T15:22:28.369Z,5.90
2023-02-26T15:24:58.479Z,5.90
2023-02-26T15:27:31.235Z,5.90
2023-02-26T15:30:01.420Z,5.80
2023-02-26T15:32:32.161Z,5.80
2023-02-26T15:35:09.409Z,5.80
2023-02-26T15:37:38.931Z,5.80
2023-02-26T15:40:08.263Z,5.80
2023-02-26T15:42:42.716Z,5.80
2023-02-26T15:45:27.669Z,5.80
2023-02-26T15:48:01.106Z,5.70
2023-02-26T15:50:33.781Z,5.70
2023-02-26T15:53:04.488Z,5.70
2023-02-26T15:55:37.592Z,5.70
2023-02-26T15:58:07.303Z,5.70
2023-02-26T16:00:37.881Z,5.70
2023-02-26T16:03:06.086Z,5.70
2023-02-26T16:05:37.271Z,5.60
2023-02-26T16:08:06.466Z,5.70
2023-02-26T16:10:39.554Z,5.60
2023-02-26T16:13:11.764Z,5.60
2023-02-26T16:15:41.075Z,5.60
2023-02-26T16:18:17.265Z,5.60
2023-02-26T16:20:50.366Z,5.60
2023-02-26T16:23:38.329Z,5.50
2023-02-26T16:26:11.164Z,5.50
2023-02-26T16:28:46.665Z,5.50
2023-02-26T16:31:25.935Z,5.50
2023-02-26T16:34:00.971Z,5.50
2023-02-26T16:36:33.917Z,5.50
2023-02-26T16:39:08.510Z,5.50
2023-02-26T16:41:40.877Z,5.40
2023-02-26T16:44:31.248Z,5.40
2023-02-26T16:47:01.737Z,5.40
2023-02-26T16:49:38.874Z,5.40
2023-02-26T16:52:06.997Z,5.30
2023-02-26T16:54:42.985Z,5.30
2023-02-26T16:57:35.171Z,5.30
2023-02-26T17:00:10.129Z,5.30
2023-02-26T17:02:42.197Z,5.30
2023-02-26T17:05:22.585Z,5.30
2023-02-26T17:07:58.629Z,5.20
2023-02-26T17:10:55.252Z,5.20
2023-02-26T17:13:26.995Z,5.20
2023-02-26T17:15:59.866Z,5.20
2023-02-26T17:18:31.421Z,5.20
2023-02-26T17:21:04.873Z,5.20
2023-02-26T17:23:37.648Z,5.20
2023-02-26T17:26:07.299Z,5.20
2023-02-26T17:28:41.972Z,5.20
2023-02-26T17:31:13.324Z,5.20
2023-02-26T17:33:44.046Z,5.10
2023-02-26T17:36:19.263Z,5.10
2023-02-26T17:38:49.218Z,5.10
2023-02-26T17:41:20.954Z,5.00
2023-02-26T17:43:49.241Z,5.00
2023-02-26T17:46:19.043Z,5.00
2023-02-26T17:48:48.767Z,5.00
2023-02-26T17:51:17.310Z,4.90
2023-02-26T17:53:47.285Z,4.90
2023-02-26T17:56:37.535Z,4.90
2023-02-26T17:59:08.146Z,4.90
2023-02-26T18:01:37.863Z,4.90
2023-02-26T18:04:06.896Z,4.80
2023-02-26T18:06:40.852Z,4.80
2023-02-26T18:09:12.534Z,4.80
2023-02-26T18:11:43.680Z,4.70
2023-02-26T18:14:11.868Z,4.70
2023-02-26T18:16:43.011Z,4.80
2023-02-26T18:19:15.744Z,4.80
2023-02-26T18:21:45.802Z,4.70
2023-02-26T18:24:14.179Z,4.70
2023-02-26T18:26:43.622Z,4.70
2023-02-26T18:29:12.376Z,4.70
2023-02-26T18:31:41.111Z,4.60
2023-02-26T18:34:09.964Z,4.60
2023-02-26T18:36:39.714Z,4.60
2023-02-26T18:39:13.758Z,4.60
2023-02-26T18:41:42.296Z,4.50
2023-02-26T18:44:10.542Z,4.50
2023-02-26T18:46:40.955Z,4.50
2023-02-26T18:49:20.559Z,4.50
2023-02-26T18:51:48.895Z,4.50
2023-02-26T18:54:17.296Z,4.50
2023-02-26T18:56:48.749Z,4.50
2023-02-26T18:59:17.047Z,4.50
2023-02-26T19:01:45.526Z,4.40
2023-02-26T19:04:13.942Z,4.40
2023-02-26T19:06:42.154Z,4.30
2023-02-26T19:09:10.605Z,4.30
2023-02-26T19:11:39.585Z,4.30
2023-02-26T19:14:07.970Z,4.30
2023-02-26T19:16:39.539Z,4.30
2023-02-26T19:19:11.967Z,4.30
2023-02-26T19:21:42.376Z,4.30
2023-02-26T19:24:13.019Z,4.30
2023-02-26T19:26:42.616Z,4.30
2023-02-26T19:29:21.162Z,4.30
2023-02-26T19:31:49.601Z,4.30
2023-02-26T19:34:18.061Z,4.20
2023-02-26T19:36:49.807Z,4.20
2023-02-26T19:39:19.292Z,4.10
2023-02-26T19:41:53.513Z,4.00
2023-02-26T19:44:24.181Z,4.00
2023-02-26T19:46:53.662Z,4.00
2023-02-26T19:49:23.872Z,3.90
2023-02-26T19:51:53.085Z,4.00
2023-02-26T19:54:21.230Z,3.90
2023-02-26T19:56:50.234Z,3.90
2023-02-26T19:59:19.840Z,3.30
2023-02-26T20:01:50.259Z,3.80
2023-02-26T20:04:19.494Z,3.80
2023-02-26T20:06:47.452Z,3.80
2023-02-26T20:09:17.848Z,3.70
2023-02-26T20:11:46.419Z,3.70
2023-02-26T20:14:15.088Z,3.70
2023-02-26T20:16:43.328Z,3.60
2023-02-26T20:19:11.564Z,3.60
2023-02-26T20:21:40.016Z,3.60
2023-02-26T20:24:09.154Z,3.60
2023-02-26T20:26:38.896Z,3.60
2023-02-26T20:29:07.130Z,3.60
2023-02-26T20:31:35.927Z,3.60
2023-02-26T20:34:04.056Z,3.50
2023-02-26T20:36:32.749Z,3.60
2023-02-26T20:39:02.686Z,3.60
2023-02-26T20:41:32.124Z,3.60
2023-02-26T20:44:01.215Z,3.50
2023-02-26T20:46:30.406Z,3.60
2023-02-26T20:48:59.925Z,3.50
2023-02-26T20:51:28.564Z,3.50
2023-02-26T20:53:56.772Z,3.50
2023-02-26T20:56:26.488Z,3.50
2023-02-26T20:58:55.365Z,3.50
2023-02-26T21:01:23.919Z,3.40
2023-02-26T21:03:54.789Z,3.40
2023-02-26T21:06:24.342Z,3.40
2023-02-26T21:08:52.339Z,3.30
2023-02-26T21:11:20.142Z,3.30
2023-02-26T21:13:48.213Z,3.30
2023-02-26T21:16:16.034Z,3.30
2023-02-26T21:18:45.508Z,3.30
2023-02-26T21:21:14.637Z,3.30
2023-02-26T21:23:42.262Z,3.30
2023-02-26T21:26:11.114Z,3.20
2023-02-26T21:28:39.149Z,3.20
2023-02-26T21:31:06.852Z,3.30
2023-02-26T21:33:34.346Z,3.30
2023-02-26T21:36:02.211Z,3.20
2023-02-26T21:38:29.633Z,3.20
2023-02-26T21:40:56.989Z,3.10
2023-02-26T21:43:26.151Z,3.10
2023-02-26T21:45:54.178Z,3.10
2023-02-26T21:48:21.597Z,3.00
2023-02-26T21:50:52.151Z,3.00
2023-02-26T21:53:19.375Z,3.00
2023-02-26T21:55:46.662Z,3.00
2023-02-26T21:58:13.942Z,3.00
2023-02-26T22:00:41.243Z,3.00
2023-02-26T22:03:08.379Z,2.90
2023-02-26T22:05:35.473Z,2.90
2023-02-26T22:08:02.583Z,2.80
2023-02-26T22:10:29.764Z,2.80
2023-02-26T22:12:57.357Z,2.80
2023-02-26T22:15:24.429Z,2.80
2023-02-26T22:17:51.532Z,2.90
2023-02-26T22:20:18.883Z,2.80
2023-02-26T22:22:46.007Z,2.80
2023-02-26T22:25:13.664Z,2.80
2023-02-26T22:27:40.881Z,2.70
2023-02-26T22:30:09.084Z,2.80
2023-02-26T22:32:36.308Z,2.80
2023-02-26T22:35:03.897Z,2.80
2023-02-26T22:37:31.090Z,2.80
2023-02-26T22:39:58.198Z,2.80
2023-02-26T22:42:25.352Z,2.80
2023-02-26T22:44:52.427Z,2.80
2023-02-26T22:47:19.578Z,2.70
2023-02-26T22:49:46.712Z,2.70
2023-02-26T22:52:14.255Z,2.70
2023-02-26T22:54:41.538Z,2.70
2023-02-26T22:57:08.840Z,2.60
2023-02-26T22:59:35.940Z,2.50
2023-02-26T23:02:03.086Z,2.40
2023-02-26T23:04:30.235Z,2.30
2023-02-26T23:06:57.480Z,2.40
2023-02-26T23:09:24.643Z,2.30
2023-02-26T23:11:51.757Z,2.30
2023-02-26T23:14:18.994Z,2.30
2023-02-26T23:16:46.360Z,2.20
2023-02-26T23:19:13.514Z,2.20
2023-02-26T23:21:40.995Z,2.20
2023-02-26T23:24:08.136Z,2.20
2023-02-26T23:26:35.250Z,2.20
2023-02-26T23:29:02.362Z,2.10
2023-02-26T23:31:30.122Z,2.10
2023-02-26T23:33:57.495Z,2.10
2023-02-26T23:36:24.562Z,2.00
2023-02-26T23:38:51.709Z,1.90
2023-02-26T23:41:18.959Z,1.90
2023-02-26T23:43:46.108Z,1.90
2023-02-26T23:46:13.403Z,2.00
2023-02-26T23:48:40.509Z,1.90
2023-02-26T23:51:07.530Z,1.90
2023-02-26T23:53:34.649Z,1.80
2023-02-26T23:56:02.221Z,1.80
2023-02-26T23:58:31.332Z,1.90
